Time;durP1;ratioP1;P1;durP2;ratioP2;P2;SDS_P1;SDS_P2;PMS_P1;PMS_P2;Temp;Humidity;BMP_temperature;BMP_pressure;BME280_temperature;BME280_humidity;BME280_pressure;Samples;Min_cycle;Max_cycle;Signal;HPM_P1;HPM_P2
2023/04/09 00:01:22;;;;;;;8.43;7.63;;;11.70;99.90;;;;;;4985768;28;20629;-73
2023/04/09 00:03:51;;;;;;;9.27;8.40;;;11.80;99.90;;;;;;4998819;28;20479;-74
2023/04/09 00:06:19;;;;;;;8.97;8.17;;;11.70;99.90;;;;;;4979445;28;20454;-74
2023/04/09 00:08:48;;;;;;;10.03;8.50;;;11.70;99.90;;;;;;4987473;28;20443;-74
2023/04/09 00:11:19;;;;;;;10.73;9.70;;;11.70;99.90;;;;;;4985820;28;21103;-74
2023/04/09 00:13:48;;;;;;;9.53;8.63;;;11.70;99.90;;;;;;4982528;28;20483;-74
2023/04/09 00:16:17;;;;;;;7.63;6.80;;;11.70;99.90;;;;;;4986736;28;20452;-74
2023/04/09 00:18:46;;;;;;;6.93;6.33;;;11.70;99.90;;;;;;4981734;28;20473;-73
2023/04/09 00:21:15;;;;;;;6.80;6.23;;;11.70;99.90;;;;;;4985463;28;20452;-73
2023/04/09 00:23:43;;;;;;;7.03;6.33;;;11.70;99.90;;;;;;4986432;28;20458;-74
2023/04/09 00:26:11;;;;;;;8.90;7.60;;;11.70;99.90;;;;;;4979711;28;20528;-73
2023/04/09 00:28:42;;;;;;;10.03;8.93;;;11.70;99.90;;;;;;4985744;28;20536;-74
2023/04/09 00:31:11;;;;;;;9.83;8.83;;;11.70;99.90;;;;;;4985462;28;20447;-74
2023/04/09 00:33:40;;;;;;;9.33;8.37;;;11.70;99.90;;;;;;4977232;28;20452;-74
2023/04/09 00:36:08;;;;;;;7.07;6.47;;;11.70;99.90;;;;;;4977204;28;20812;-73
2023/04/09 00:38:37;;;;;;;8.20;7.40;;;11.70;99.90;;;;;;4974478;28;20967;-74
2023/04/09 00:41:05;;;;;;;8.47;7.70;;;11.70;99.90;;;;;;4976508;28;20449;-75
2023/04/09 00:43:34;;;;;;;7.30;6.60;;;11.70;99.90;;;;;;4979836;28;20444;-74
2023/04/09 00:46:05;;;;;;;9.67;8.43;;;11.70;99.90;;;;;;4982106;28;20503;-74
2023/04/09 00:48:34;;;;;;;7.53;6.83;;;11.70;99.90;;;;;;4982391;28;20469;-74
2023/04/09 00:51:03;;;;;;;8.37;7.50;;;11.70;99.90;;;;;;4973751;28;20447;-73
2023/04/09 00:53:31;;;;;;;9.47;8.23;;;11.70;99.90;;;;;;4984667;28;20482;-74
2023/04/09 00:56:00;;;;;;;8.60;7.80;;;11.70;99.90;;;;;;4984240;28;20509;-74
2023/04/09 00:58:29;;;;;;;7.77;6.97;;;11.70;99.90;;;;;;4983978;28;20493;-74
2023/04/09 01:00:57;;;;;;;7.80;7.00;;;11.70;99.90;;;;;;4965495;28;20819;-73
2023/04/09 01:03:27;;;;;;;8.40;7.47;;;11.70;99.90;;;;;;4985045;28;20821;-73
2023/04/09 01:06:05;;;;;;;7.10;6.50;;;11.70;99.90;;;;;;4982003;28;20512;-74
2023/04/09 01:08:44;;;;;;;6.23;5.63;;;11.70;99.90;;;;;;4977843;28;20439;-74
2023/04/09 01:11:24;;;;;;;9.87;8.87;;;11.70;99.90;;;;;;4984927;28;20959;-74
2023/04/09 01:14:01;;;;;;;11.20;8.50;;;11.70;99.90;;;;;;4987090;28;20450;-74
2023/04/09 01:16:32;;;;;;;9.20;8.27;;;11.70;99.90;;;;;;4980518;28;20470;-74
2023/04/09 01:19:10;;;;;;;8.50;7.63;;;11.70;99.90;;;;;;4980773;28;20574;-73
2023/04/09 01:21:40;;;;;;;8.20;7.40;;;11.70;99.90;;;;;;4979703;28;20453;-74
2023/04/09 01:24:21;;;;;;;7.80;7.10;;;11.70;99.90;;;;;;4977488;28;20542;-74
2023/04/09 01:26:58;;;;;;;8.90;8.00;;;11.70;99.90;;;;;;4984130;28;21028;-74
2023/04/09 01:29:45;;;;;;;12.03;8.80;;;11.70;99.90;;;;;;4984855;28;20469;-74
2023/04/09 01:32:16;;;;;;;8.97;8.17;;;11.70;99.90;;;;;;4985661;28;20993;-74
2023/04/09 01:34:47;;;;;;;9.00;8.10;;;11.70;99.90;;;;;;4990909;28;20965;-74
2023/04/09 01:37:16;;;;;;;8.13;7.33;;;11.70;99.90;;;;;;4979951;28;20477;-74
2023/04/09 01:39:46;;;;;;;8.87;7.90;;;11.70;99.90;;;;;;4982560;28;20995;-74
2023/04/09 01:42:17;;;;;;;9.00;8.10;;;11.70;99.90;;;;;;4978557;28;20484;-74
2023/04/09 01:44:48;;;;;;;8.53;7.63;;;11.70;99.90;;;;;;4984612;28;20493;-74
2023/04/09 01:47:17;;;;;;;8.80;8.00;;;11.70;99.90;;;;;;5002994;28;20882;-74
2023/04/09 01:49:46;;;;;;;10.47;9.37;;;11.70;99.90;;;;;;4982523;28;20505;-74
2023/04/09 01:52:15;;;;;;;8.30;7.37;;;11.70;99.90;;;;;;4986864;28;20857;-74
2023/04/09 01:54:43;;;;;;;10.03;8.30;;;11.60;99.90;;;;;;4987370;28;20482;-74
2023/04/09 01:57:11;;;;;;;9.37;7.57;;;11.60;99.90;;;;;;4987369;28;20575;-74
2023/04/09 01:59:40;;;;;;;9.43;8.53;;;11.60;99.90;;;;;;4989319;28;20462;-74
2023/04/09 02:02:17;;;;;;;8.20;7.33;;;11.60;99.90;;;;;;4987555;28;20485;-74
2023/04/09 02:04:49;;;;;;;10.07;8.67;;;11.60;99.90;;;;;;4980535;28;20430;-73
2023/04/09 02:07:26;;;;;;;7.07;6.40;;;11.60;99.90;;;;;;4975113;28;20461;-74
2023/04/09 02:09:57;;;;;;;7.57;6.87;;;11.60;99.90;;;;;;4982204;28;20468;-71
2023/04/09 02:12:26;;;;;;;7.80;6.90;;;11.60;99.90;;;;;;4990238;28;20514;-73
2023/04/09 02:14:55;;;;;;;10.63;8.00;;;11.60;99.90;;;;;;4985167;28;20623;-74
2023/04/09 02:17:24;;;;;;;8.70;7.80;;;11.60;99.90;;;;;;4992597;28;20480;-73
2023/04/09 02:19:53;;;;;;;8.27;7.47;;;11.60;99.90;;;;;;4991421;28;20922;-73
2023/04/09 02:22:21;;;;;;;8.40;7.47;;;11.60;99.90;;;;;;4984822;28;20518;-73
2023/04/09 02:24:50;;;;;;;8.83;7.97;;;11.60;99.90;;;;;;4989387;28;20423;-74
2023/04/09 02:27:18;;;;;;;8.70;7.87;;;11.60;99.90;;;;;;4987438;28;20476;-75
2023/04/09 02:29:47;;;;;;;8.50;7.60;;;11.60;99.90;;;;;;4987403;28;20465;-73
2023/04/09 02:32:15;;;;;;;7.60;6.90;;;11.60;99.90;;;;;;4984321;28;20475;-74
2023/04/09 02:34:46;;;;;;;8.93;7.93;;;11.60;99.90;;;;;;4978195;28;20457;-73
2023/04/09 02:37:14;;;;;;;8.90;7.77;;;11.60;99.90;;;;;;4989462;28;20482;-74
2023/04/09 02:39:43;;;;;;;8.40;7.57;;;11.60;99.90;;;;;;4988184;28;20526;-73
2023/04/09 02:42:11;;;;;;;8.73;7.67;;;11.60;99.90;;;;;;4986743;28;20880;-74
2023/04/09 02:44:40;;;;;;;9.43;8.47;;;11.60;99.90;;;;;;4990883;28;20448;-74
2023/04/09 02:47:08;;;;;;;9.77;8.20;;;11.60;99.90;;;;;;4974169;28;20568;-73
2023/04/09 02:49:38;;;;;;;9.10;7.93;;;11.60;99.90;;;;;;4979355;28;20475;-74
2023/04/09 02:52:10;;;;;;;7.63;6.93;;;11.60;99.90;;;;;;4981281;28;20524;-74
2023/04/09 02:54:39;;;;;;;8.20;7.43;;;11.60;99.90;;;;;;4989946;28;20823;-74
2023/04/09 02:57:07;;;;;;;10.70;7.93;;;11.60;99.90;;;;;;4989047;28;20486;-73
2023/04/09 02:59:37;;;;;;;8.30;7.50;;;11.60;99.90;;;;;;4981894;28;20544;-73
2023/04/09 03:02:07;;;;;;;9.40;8.47;;;11.60;99.90;;;;;;4987223;28;20484;-73
2023/04/09 03:04:36;;;;;;;10.20;7.83;;;11.60;99.90;;;;;;4982518;28;20477;-74
2023/04/09 03:07:05;;;;;;;8.83;7.93;;;11.50;99.90;;;;;;4981459;28;20477;-73
2023/04/09 03:09:35;;;;;;;9.27;8.03;;;11.50;99.90;;;;;;4985895;28;20456;-74
2023/04/09 03:12:03;;;;;;;8.80;8.00;;;11.50;99.90;;;;;;4984288;28;20458;-74
2023/04/09 03:14:32;;;;;;;8.80;8.00;;;11.50;99.90;;;;;;4983813;28;20461;-74
2023/04/09 03:17:03;;;;;;;8.80;7.90;;;11.50;99.90;;;;;;4985759;28;20481;-74
2023/04/09 03:19:31;;;;;;;7.60;6.80;;;11.50;99.90;;;;;;4987312;28;21025;-74
2023/04/09 03:22:01;;;;;;;8.70;7.83;;;11.60;99.90;;;;;;5005435;28;20451;-74
2023/04/09 03:24:32;;;;;;;8.87;7.53;;;11.50;99.90;;;;;;4987848;28;20578;-73
2023/04/09 03:27:05;;;;;;;8.90;8.00;;;11.50;99.90;;;;;;4987111;28;20487;-73
2023/04/09 03:29:34;;;;;;;7.70;7.00;;;11.50;99.90;;;;;;4987915;28;20505;-74
2023/04/09 03:32:03;;;;;;;8.50;7.73;;;11.50;99.90;;;;;;4967643;28;20519;-74
2023/04/09 03:34:32;;;;;;;8.60;7.80;;;11.50;99.90;;;;;;4980508;28;20474;-73
2023/04/09 03:37:01;;;;;;;8.77;7.87;;;11.50;99.90;;;;;;4988734;28;20435;-74
2023/04/09 03:39:31;;;;;;;8.37;7.57;;;11.50;99.90;;;;;;4986648;28;20505;-74
2023/04/09 03:42:00;;;;;;;10.00;8.07;;;11.50;99.90;;;;;;4984167;28;20558;-74
2023/04/09 03:44:36;;;;;;;8.70;7.90;;;11.50;99.90;;;;;;4984671;28;20815;-73
2023/04/09 03:47:09;;;;;;;8.03;7.23;;;11.50;99.90;;;;;;5002070;28;20466;-74
2023/04/09 03:49:39;;;;;;;8.73;7.73;;;11.50;99.90;;;;;;4986755;28;20462;-73
2023/04/09 03:52:28;;;;;;;10.30;7.30;;;11.50;99.90;;;;;;4985551;28;20483;-74
2023/04/09 03:55:05;;;;;;;7.93;7.13;;;11.50;99.90;;;;;;4988009;28;20633;-74
2023/04/09 03:57:33;;;;;;;7.87;7.17;;;11.50;99.90;;;;;;4986690;28;20842;-74
2023/04/09 04:00:04;;;;;;;8.73;7.83;;;11.50;99.90;;;;;;4985159;28;21027;-74
2023/04/09 04:02:50;;;;;;;8.50;7.70;;;11.50;99.90;;;;;;4982382;28;20495;-74
2023/04/09 04:05:37;;;;;;;8.57;7.43;;;11.40;99.90;;;;;;4973801;28;20469;-74
2023/04/09 04:08:09;;;;;;;8.60;7.70;;;11.50;99.90;;;;;;4980744;28;20943;-74
2023/04/09 04:10:37;;;;;;;11.83;8.90;;;11.40;99.90;;;;;;4986704;28;20508;-73
2023/04/09 04:13:07;;;;;;;8.23;7.30;;;11.40;99.90;;;;;;4985239;28;20577;-74
2023/04/09 04:15:50;;;;;;;8.20;7.50;;;11.40;99.90;;;;;;4961949;28;20547;-75
2023/04/09 04:18:23;;;;;;;9.37;8.37;;;11.40;99.90;;;;;;4965122;28;20474;-73
2023/04/09 04:20:54;;;;;;;8.40;7.63;;;11.40;99.90;;;;;;4999870;28;20998;-73
2023/04/09 04:23:23;;;;;;;8.90;8.00;;;11.40;99.90;;;;;;4984298;28;20517;-74
2023/04/09 04:26:02;;;;;;;8.60;7.77;;;11.40;99.90;;;;;;4984355;28;20543;-72
2023/04/09 04:28:35;;;;;;;8.70;7.80;;;11.40;99.90;;;;;;4989069;28;20803;-73
2023/04/09 04:31:10;;;;;;;7.57;6.97;;;11.40;99.90;;;;;;4985588;28;20440;-74
2023/04/09 04:33:40;;;;;;;7.63;6.87;;;11.40;99.90;;;;;;4980933;28;20971;-74
2023/04/09 04:36:14;;;;;;;7.80;7.10;;;11.40;99.90;;;;;;4984214;28;20863;-74
2023/04/09 04:38:54;;;;;;;8.37;7.50;;;11.40;99.90;;;;;;4984130;28;20962;-73
2023/04/09 04:41:41;;;;;;;8.07;7.27;;;11.40;99.90;;;;;;5001706;28;20459;-74
2023/04/09 04:44:15;;;;;;;8.77;7.87;;;11.40;99.90;;;;;;4979181;28;20449;-74
2023/04/09 04:46:46;;;;;;;8.10;7.30;;;11.40;99.90;;;;;;4983318;28;20470;-73
2023/04/09 04:49:14;;;;;;;8.33;7.50;;;11.40;99.90;;;;;;4973396;28;21341;-74
2023/04/09 04:51:47;;;;;;;7.90;7.10;;;11.40;99.90;;;;;;4983323;28;20895;-74
2023/04/09 04:54:17;;;;;;;8.20;7.50;;;11.40;99.90;;;;;;4964318;28;21028;-73
2023/04/09 04:56:52;;;;;;;8.33;7.53;;;11.40;99.90;;;;;;4982875;28;20570;-74
2023/04/09 04:59:33;;;;;;;8.57;7.63;;;11.40;99.90;;;;;;4984136;28;20464;-73
2023/04/09 05:02:08;;;;;;;8.23;7.43;;;11.40;99.90;;;;;;5002695;28;20474;-74
2023/04/09 05:04:51;;;;;;;9.03;8.13;;;11.40;99.90;;;;;;4975767;28;20454;-73
2023/04/09 05:07:23;;;;;;;6.90;6.20;;;11.30;99.90;;;;;;4979744;28;20483;-75
2023/04/09 05:09:55;;;;;;;7.53;6.63;;;11.40;99.90;;;;;;4978223;28;20466;-74
2023/04/09 05:12:24;;;;;;;7.03;6.43;;;11.30;99.90;;;;;;4981244;28;21406;-74
2023/04/09 05:14:55;;;;;;;8.73;7.87;;;11.30;99.90;;;;;;4983850;28;20430;-73
2023/04/09 05:17:27;;;;;;;7.90;7.10;;;11.30;99.90;;;;;;4981265;28;20474;-74
2023/04/09 05:19:58;;;;;;;9.30;8.33;;;11.30;99.90;;;;;;4994979;28;20455;-74
2023/04/09 05:22:35;;;;;;;8.03;6.73;;;11.40;99.90;;;;;;4985383;28;20502;-74
2023/04/09 05:25:05;;;;;;;8.80;7.90;;;11.30;99.90;;;;;;4985044;28;20527;-74
2023/04/09 05:27:38;;;;;;;7.63;6.60;;;11.30;99.90;;;;;;4984242;28;20479;-73
2023/04/09 05:30:08;;;;;;;8.27;7.47;;;11.30;99.90;;;;;;4969943;28;20509;-74
2023/04/09 05:32:40;;;;;;;8.07;6.60;;;11.30;99.90;;;;;;4978250;28;20480;-74
2023/04/09 05:35:09;;;;;;;8.20;6.90;;;11.30;99.90;;;;;;4960663;28;20505;-74
2023/04/09 05:37:42;;;;;;;8.17;7.37;;;11.30;99.90;;;;;;4983509;28;20577;-74
2023/04/09 05:40:13;;;;;;;9.47;8.57;;;11.30;99.90;;;;;;4980300;28;20478;-73
2023/04/09 05:42:43;;;;;;;6.87;6.27;;;11.30;99.90;;;;;;4979141;28;20570;-74
2023/04/09 05:45:17;;;;;;;8.07;7.27;;;11.30;99.90;;;;;;4977628;28;20973;-74
2023/04/09 05:47:52;;;;;;;7.87;7.17;;;11.30;99.90;;;;;;5001261;28;20479;-74
2023/04/09 05:50:23;;;;;;;8.73;7.87;;;11.30;99.90;;;;;;4969705;28;20489;-74
2023/04/09 05:52:55;;;;;;;7.67;6.90;;;11.30;99.90;;;;;;4982539;28;20995;-74
2023/04/09 05:55:31;;;;;;;8.73;7.80;;;11.30;99.90;;;;;;4966558;28;20442;-73
2023/04/09 05:58:01;;;;;;;7.43;6.73;;;11.30;99.90;;;;;;4983978;28;20821;-73
2023/04/09 06:00:30;;;;;;;9.20;7.90;;;11.30;99.90;;;;;;4985485;28;20485;-73
2023/04/09 06:03:03;;;;;;;7.83;7.10;;;11.30;99.90;;;;;;4971338;28;20633;-73
2023/04/09 06:05:32;;;;;;;7.30;6.57;;;11.30;99.90;;;;;;4986177;28;20975;-74
2023/04/09 06:08:00;;;;;;;8.43;6.93;;;11.30;99.90;;;;;;4961559;28;20510;-74
2023/04/09 06:10:29;;;;;;;7.43;6.73;;;11.30;99.90;;;;;;4978186;28;21074;-73
2023/04/09 06:12:58;;;;;;;7.60;6.80;;;11.30;99.90;;;;;;4981917;28;20530;-73
2023/04/09 06:15:27;;;;;;;8.90;7.50;;;11.20;99.90;;;;;;4976892;28;20453;-74
2023/04/09 06:17:56;;;;;;;8.90;7.37;;;11.20;99.90;;;;;;4986587;28;20494;-73
2023/04/09 06:20:29;;;;;;;8.23;7.40;;;11.20;99.90;;;;;;4976701;28;20470;-74
2023/04/09 06:22:57;;;;;;;7.07;6.37;;;11.20;99.90;;;;;;4986936;28;20477;-73
2023/04/09 06:25:26;;;;;;;9.30;8.40;;;11.20;99.90;;;;;;4988788;28;20451;-73
2023/04/09 06:27:55;;;;;;;11.23;9.73;;;11.20;99.90;;;;;;4981835;28;21020;-74
2023/04/09 06:30:24;;;;;;;13.60;10.70;;;11.20;99.90;;;;;;4972890;28;21114;-73
2023/04/09 06:32:53;;;;;;;9.30;8.30;;;11.20;99.90;;;;;;4981970;28;21268;-74
2023/04/09 06:35:22;;;;;;;10.23;8.30;;;11.20;99.90;;;;;;4986234;28;20426;-74
2023/04/09 06:37:52;;;;;;;9.43;8.53;;;11.20;99.90;;;;;;4983723;28;20497;-74
2023/04/09 06:40:22;;;;;;;9.93;8.50;;;11.20;99.90;;;;;;4993703;28;20455;-73
2023/04/09 06:42:50;;;;;;;9.17;8.30;;;11.20;99.90;;;;;;4996199;28;20471;-73
2023/04/09 06:45:30;;;;;;;12.00;9.87;;;11.20;99.90;;;;;;4988217;28;20443;-73
2023/04/09 06:47:59;;;;;;;11.60;10.40;;;11.20;99.90;;;;;;4981902;28;20511;-72
2023/04/09 06:50:28;;;;;;;12.67;11.17;;;11.20;99.90;;;;;;4979025;28;20467;-74
2023/04/09 06:52:58;;;;;;;9.80;8.80;;;11.20;99.90;;;;;;4983121;28;20518;-74
2023/04/09 06:55:26;;;;;;;9.90;8.90;;;11.20;99.90;;;;;;4959530;28;20456;-74
2023/04/09 06:57:55;;;;;;;10.00;9.00;;;11.20;99.90;;;;;;4981946;28;20521;-74
2023/04/09 07:00:24;;;;;;;9.23;8.30;;;11.30;99.90;;;;;;4984151;28;20494;-74
2023/04/09 07:02:53;;;;;;;8.53;7.67;;;11.20;99.90;;;;;;4978998;28;20479;-74
2023/04/09 07:05:22;;;;;;;8.50;7.43;;;11.30;99.90;;;;;;4987174;28;20854;-73
2023/04/09 07:07:51;;;;;;;9.07;8.07;;;11.30;99.90;;;;;;4984779;28;20478;-75
2023/04/09 07:10:21;;;;;;;9.80;8.80;;;11.30;99.90;;;;;;4979456;28;20479;-73
2023/04/09 07:12:49;;;;;;;9.57;8.57;;;11.30;99.90;;;;;;4987772;28;20480;-74
2023/04/09 07:15:17;;;;;;;9.83;7.97;;;11.30;99.90;;;;;;4987593;28;20451;-73
2023/04/09 07:17:46;;;;;;;9.20;8.30;;;11.30;99.90;;;;;;4982573;28;20651;-73
2023/04/09 07:20:16;;;;;;;9.03;7.97;;;11.30;99.90;;;;;;4988025;28;20454;-73
2023/04/09 07:22:44;;;;;;;9.93;7.87;;;11.30;99.90;;;;;;4987002;28;20474;-73
2023/04/09 07:25:13;;;;;;;9.63;8.73;;;11.30;99.90;;;;;;4980892;28;20444;-73
2023/04/09 07:27:43;;;;;;;9.87;8.73;;;11.30;99.90;;;;;;4973441;28;20482;-74
2023/04/09 07:30:12;;;;;;;8.70;7.80;;;11.40;99.90;;;;;;4987848;28;20468;-73
2023/04/09 07:32:41;;;;;;;10.10;8.33;;;11.40;99.90;;;;;;4981794;28;20910;-74
2023/04/09 07:35:10;;;;;;;8.73;7.40;;;11.40;99.90;;;;;;4978135;28;20538;-73
2023/04/09 07:37:39;;;;;;;9.43;8.40;;;11.40;99.90;;;;;;4993866;28;20550;-74
2023/04/09 07:40:08;;;;;;;9.23;7.83;;;11.40;99.90;;;;;;4977187;28;20911;-73
2023/04/09 07:42:37;;;;;;;8.70;7.40;;;11.40;99.90;;;;;;4981879;28;20495;-73
2023/04/09 07:45:09;;;;;;;8.23;7.47;;;11.40;99.90;;;;;;4983268;28;20521;-74
2023/04/09 07:47:39;;;;;;;8.37;7.57;;;11.40;99.90;;;;;;4985960;28;20554;-74
2023/04/09 07:50:10;;;;;;;8.00;7.20;;;11.40;99.90;;;;;;4985358;28;20970;-73
2023/04/09 07:52:39;;;;;;;8.23;7.20;;;11.40;99.90;;;;;;4979503;28;20497;-73
2023/04/09 07:55:08;;;;;;;9.80;8.80;;;11.40;99.90;;;;;;4984754;28;20466;-74
2023/04/09 07:57:38;;;;;;;9.83;8.77;;;11.40;99.90;;;;;;4983262;28;20511;-73
2023/04/09 08:00:09;;;;;;;9.00;7.63;;;11.40;99.90;;;;;;4985113;28;20554;-74
2023/04/09 08:02:41;;;;;;;9.00;7.80;;;11.40;99.90;;;;;;4986618;28;20538;-73
2023/04/09 08:05:10;;;;;;;8.80;7.90;;;11.50;99.90;;;;;;4983356;28;20465;-73
2023/04/09 08:07:42;;;;;;;7.70;6.80;;;11.50;99.90;;;;;;5003183;28;20521;-73
2023/04/09 08:10:13;;;;;;;8.87;8.00;;;11.50;99.90;;;;;;4981563;28;20888;-73
2023/04/09 08:12:44;;;;;;;8.97;8.07;;;11.50;99.90;;;;;;4985277;28;20567;-73
2023/04/09 08:15:14;;;;;;;7.80;6.97;;;11.50;99.90;;;;;;4985087;28;20506;-73
2023/04/09 08:17:43;;;;;;;9.00;7.57;;;11.50;99.90;;;;;;4983766;28;20609;-73
2023/04/09 08:20:12;;;;;;;8.57;7.77;;;11.50;99.90;;;;;;5001576;28;20470;-73
2023/04/09 08:22:41;;;;;;;9.10;8.17;;;11.50;99.90;;;;;;4992441;28;20476;-74
2023/04/09 08:25:10;;;;;;;8.50;7.67;;;11.50;99.90;;;;;;4982647;28;20438;-74
2023/04/09 08:27:39;;;;;;;8.57;7.77;;;11.50;99.90;;;;;;4986321;28;20494;-74
2023/04/09 08:30:09;;;;;;;8.20;7.40;;;11.50;99.90;;;;;;4977400;28;20478;-71
2023/04/09 08:32:39;;;;;;;7.60;6.80;;;11.50;99.90;;;;;;4983903;28;20466;-73
2023/04/09 08:35:09;;;;;;;7.47;6.80;;;11.60;99.90;;;;;;4977596;28;20448;-73
2023/04/09 08:37:38;;;;;;;9.33;7.63;;;11.70;99.90;;;;;;4979417;28;20498;-74
2023/04/09 08:40:08;;;;;;;8.57;7.67;;;11.60;99.90;;;;;;4985961;28;20457;-73
2023/04/09 08:42:40;;;;;;;7.63;6.83;;;11.60;99.90;;;;;;4985549;28;20479;-74
2023/04/09 08:45:11;;;;;;;8.50;7.30;;;11.60;99.90;;;;;;5001535;28;20962;-73
2023/04/09 08:47:43;;;;;;;8.47;7.10;;;11.60;99.90;;;;;;4980262;28;20539;-74
2023/04/09 08:50:14;;;;;;;7.73;6.93;;;11.60;99.90;;;;;;4973427;28;20505;-75
2023/04/09 08:52:45;;;;;;;7.23;6.60;;;11.60;99.90;;;;;;4980222;28;20462;-73
2023/04/09 08:55:14;;;;;;;8.20;7.40;;;11.60;99.90;;;;;;4984141;28;20805;-74
2023/04/09 08:57:43;;;;;;;8.10;7.30;;;11.60;99.90;;;;;;4981357;28;20465;-74
2023/04/09 09:00:13;;;;;;;8.13;7.03;;;11.60;99.90;;;;;;4985389;28;21011;-73
2023/04/09 09:03:02;;;;;;;8.20;7.40;;;11.60;99.90;;;;;;4983531;28;20479;-74
2023/04/09 09:05:38;;;;;;;8.07;7.27;;;11.60;99.90;;;;;;4973314;28;20964;-74
2023/04/09 09:08:08;;;;;;;7.00;6.30;;;11.60;99.90;;;;;;4986225;28;20533;-74
2023/04/09 09:10:39;;;;;;;8.13;7.43;;;11.60;99.90;;;;;;4975239;28;20487;-74
2023/04/09 09:13:18;;;;;;;6.90;6.17;;;11.60;99.90;;;;;;4979436;28;21065;-73
2023/04/09 09:15:52;;;;;;;6.83;6.13;;;11.60;99.90;;;;;;4974563;28;20557;-74
2023/04/09 09:18:39;;;;;;;6.30;5.70;;;11.60;99.90;;;;;;4964988;28;20536;-73
2023/04/09 09:21:12;;;;;;;8.33;7.20;;;11.60;99.90;;;;;;4976534;28;20497;-73
2023/04/09 09:23:41;;;;;;;8.47;6.47;;;11.60;99.90;;;;;;4980983;28;20442;-74
2023/04/09 09:26:15;;;;;;;7.50;6.13;;;11.60;99.90;;;;;;4980681;28;20479;-73
2023/04/09 09:28:45;;;;;;;7.40;6.70;;;11.60;99.90;;;;;;4986220;28;20528;-74
2023/04/09 09:31:15;;;;;;;8.50;6.03;;;11.60;99.90;;;;;;4981207;28;20469;-74
2023/04/09 09:33:47;;;;;;;7.10;6.40;;;11.60;99.90;;;;;;4978507;28;20454;-73
2023/04/09 09:36:16;;;;;;;6.73;5.80;;;11.60;99.90;;;;;;4978714;28;20476;-73
2023/04/09 09:38:54;;;;;;;12.10;7.47;;;11.60;99.90;;;;;;4976606;28;20454;-72
2023/04/09 09:41:24;;;;;;;11.70;7.23;;;11.70;96.30;;;;;;4996745;28;20993;-72
2023/04/09 09:43:53;;;;;;;11.73;7.97;;;11.80;96.50;;;;;;4979967;28;20454;-73
2023/04/09 09:46:22;;;;;;;10.60;7.73;;;12.00;92.90;;;;;;4976141;28;20447;-72
2023/04/09 09:48:56;;;;;;;12.50;9.27;;;12.00;92.40;;;;;;4968251;28;20466;-72
2023/04/09 09:51:27;;;;;;;10.83;8.13;;;12.30;91.20;;;;;;4982739;28;20439;-74
2023/04/09 09:53:57;;;;;;;9.17;7.70;;;12.30;91.00;;;;;;4987402;28;21080;-73
2023/04/09 09:56:31;;;;;;;9.30;7.87;;;12.20;93.30;;;;;;4981682;28;20880;-72
2023/04/09 09:59:07;;;;;;;8.30;6.90;;;12.10;94.40;;;;;;4976924;28;20908;-73
2023/04/09 10:01:37;;;;;;;21.90;8.20;;;12.00;95.00;;;;;;4985378;28;20458;-72
2023/04/09 10:04:13;;;;;;;11.33;7.10;;;11.90;95.00;;;;;;4983444;28;20483;-73
2023/04/09 10:06:45;;;;;;;9.40;7.70;;;11.90;94.70;;;;;;4982102;28;20597;-73
2023/04/09 10:09:14;;;;;;;8.07;7.20;;;11.80;95.40;;;;;;4988266;28;21921;-73
2023/04/09 10:11:46;;;;;;;12.20;7.53;;;11.80;96.40;;;;;;4985850;28;20471;-74
2023/04/09 10:14:16;;;;;;;9.07;7.17;;;11.80;96.60;;;;;;4988116;28;20451;-73
2023/04/09 10:16:46;;;;;;;8.73;7.57;;;11.70;96.90;;;;;;4977590;28;20488;-73
2023/04/09 10:19:16;;;;;;;8.50;6.80;;;11.70;97.40;;;;;;4987856;28;20543;-72
2023/04/09 10:21:52;;;;;;;9.43;6.20;;;11.70;97.70;;;;;;4978181;28;20456;-73
2023/04/09 10:24:21;;;;;;;8.93;7.13;;;11.70;97.60;;;;;;4985388;28;20605;-70
2023/04/09 10:26:54;;;;;;;9.73;6.50;;;11.80;93.90;;;;;;4989261;28;20448;-70
2023/04/09 10:29:28;;;;;;;12.87;6.90;;;11.90;94.00;;;;;;4982000;28;20462;-71
2023/04/09 10:32:05;;;;;;;21.90;7.43;;;12.00;94.90;;;;;;4985601;28;20492;-72
2023/04/09 10:34:38;;;;;;;8.33;6.43;;;12.20;94.00;;;;;;4984827;28;20439;-73
2023/04/09 10:37:09;;;;;;;8.17;5.87;;;12.20;93.50;;;;;;4987841;28;20571;-73
2023/04/09 10:39:46;;;;;;;9.10;6.53;;;12.20;93.60;;;;;;4982204;28;20483;-72
2023/04/09 10:42:20;;;;;;;9.63;6.10;;;12.30;93.90;;;;;;4988185;28;20979;-74
2023/04/09 10:45:05;;;;;;;14.53;7.70;;;12.30;93.20;;;;;;4977306;28;20809;-72
2023/04/09 10:47:35;;;;;;;10.80;6.87;;;12.40;93.00;;;;;;4986099;28;20482;-73
2023/04/09 10:50:17;;;;;;;14.33;6.20;;;12.40;92.90;;;;;;4970133;28;21178;-74
2023/04/09 10:52:46;;;;;;;14.00;7.07;;;12.30;91.80;;;;;;4994187;28;20486;-73
2023/04/09 10:55:34;;;;;;;10.80;6.33;;;12.40;92.10;;;;;;4983636;28;21064;-74
2023/04/09 10:58:03;;;;;;;9.03;7.07;;;12.40;92.20;;;;;;4983238;28;20906;-65
2023/04/09 11:00:32;;;;;;;11.90;6.13;;;12.40;92.20;;;;;;4964151;28;20475;-64
2023/04/09 11:03:19;;;;;;;16.37;5.90;;;12.40;92.10;;;;;;4982099;28;20468;-67
2023/04/09 11:05:55;;;;;;;9.47;5.57;;;12.40;92.60;;;;;;4972334;28;20902;-66
2023/04/09 11:08:24;;;;;;;13.47;7.00;;;12.40;92.00;;;;;;4989806;28;20466;-66
2023/04/09 11:10:57;;;;;;;10.67;4.93;;;12.40;91.80;;;;;;4985584;28;21131;-73
2023/04/09 11:13:25;;;;;;;20.97;6.77;;;12.40;92.00;;;;;;4983965;28;20474;-66
2023/04/09 11:15:55;;;;;;;15.13;6.53;;;12.40;92.30;;;;;;5000281;28;20487;-66
2023/04/09 11:18:25;;;;;;;10.13;5.47;;;12.40;91.10;;;;;;4986676;28;20982;-66
2023/04/09 11:20:57;;;;;;;9.90;5.80;;;12.50;91.40;;;;;;4985019;28;20882;-65
2023/04/09 11:23:26;;;;;;;11.20;6.80;;;12.50;91.70;;;;;;4975965;28;20640;-68
2023/04/09 11:25:55;;;;;;;13.30;5.50;;;12.50;91.40;;;;;;4983305;28;20480;-72
2023/04/09 11:28:24;;;;;;;8.00;5.20;;;12.60;90.00;;;;;;4987737;28;21079;-74
2023/04/09 11:30:53;;;;;;;12.17;5.57;;;12.60;90.50;;;;;;4985676;28;20471;-73
2023/04/09 11:33:21;;;;;;;8.80;5.00;;;12.60;90.60;;;;;;4982873;28;20916;-73
2023/04/09 11:35:51;;;;;;;12.70;6.33;;;12.60;91.40;;;;;;4999330;28;20543;-66
2023/04/09 11:38:21;;;;;;;14.13;5.53;;;12.60;91.60;;;;;;4981906;28;20502;-67
2023/04/09 11:40:50;;;;;;;10.63;6.03;;;12.60;91.20;;;;;;4977848;28;20467;-67
2023/04/09 11:43:19;;;;;;;15.97;7.43;;;12.60;91.20;;;;;;4985783;28;20605;-67
2023/04/09 11:45:49;;;;;;;19.77;6.10;;;12.70;91.20;;;;;;4980301;28;20442;-72
2023/04/09 11:48:18;;;;;;;13.17;6.27;;;12.70;91.80;;;;;;4985118;28;20486;-72
2023/04/09 11:50:47;;;;;;;15.63;6.50;;;12.70;91.40;;;;;;4986830;28;20467;-65
2023/04/09 11:53:17;;;;;;;12.70;5.70;;;12.70;91.80;;;;;;4985377;28;21041;-65
2023/04/09 11:55:50;;;;;;;10.33;4.97;;;12.70;91.10;;;;;;4990205;28;20444;-67
2023/04/09 11:58:22;;;;;;;17.43;5.77;;;12.80;90.90;;;;;;4982845;28;20484;-65
2023/04/09 12:00:54;;;;;;;14.17;5.60;;;12.80;90.50;;;;;;4986715;28;20517;-65
2023/04/09 12:03:29;;;;;;;16.40;6.22;;;12.80;90.30;;;;;;4995333;28;20452;-66
2023/04/09 12:06:01;;;;;;;12.53;5.07;;;12.80;90.40;;;;;;4980735;28;20199;-65
2023/04/09 12:08:34;;;;;;;18.73;6.13;;;12.70;91.10;;;;;;4981037;28;20475;-66
2023/04/09 12:11:15;;;;;;;26.10;7.00;;;12.70;91.50;;;;;;4979789;28;20968;-65
2023/04/09 12:13:46;;;;;;;14.60;5.57;;;12.60;92.30;;;;;;4976734;28;20841;-65
2023/04/09 12:16:20;;;;;;;15.60;6.23;;;12.50;92.90;;;;;;5001193;28;20553;-66
2023/04/09 12:18:49;;;;;;;13.53;4.53;;;12.40;93.50;;;;;;4985124;28;20444;-65
2023/04/09 12:21:18;;;;;;;14.47;5.67;;;12.40;94.10;;;;;;4981674;28;20447;-66
2023/04/09 12:23:47;;;;;;;10.67;4.90;;;12.40;94.50;;;;;;4983171;28;20982;-66
2023/04/09 12:26:17;;;;;;;14.27;5.17;;;12.30;94.60;;;;;;4973567;28;20459;-67
2023/04/09 12:28:46;;;;;;;9.20;5.57;;;12.30;94.80;;;;;;4977279;28;20517;-67
2023/04/09 12:31:15;;;;;;;9.20;4.87;;;12.30;95.30;;;;;;4982121;28;20467;-67
2023/04/09 12:33:44;;;;;;;10.23;4.10;;;12.30;95.40;;;;;;4984638;28;20510;-67
2023/04/09 12:36:13;;;;;;;10.63;5.10;;;12.30;95.60;;;;;;4976549;28;20448;-66
2023/04/09 12:38:41;;;;;;;11.60;4.90;;;12.20;95.80;;;;;;4985870;28;20987;-66
2023/04/09 12:41:10;;;;;;;7.43;4.20;;;12.20;96.20;;;;;;4980896;28;20453;-66
2023/04/09 12:43:42;;;;;;;7.73;4.10;;;12.20;96.10;;;;;;4967677;28;20582;-67
2023/04/09 12:46:11;;;;;;;9.60;5.07;;;12.20;96.10;;;;;;4977422;28;20446;-66
2023/04/09 12:48:40;;;;;;;10.30;4.70;;;12.20;96.10;;;;;;4982313;28;20444;-65
2023/04/09 12:51:11;;;;;;;8.60;4.40;;;12.20;95.90;;;;;;4984440;28;20467;-66
2023/04/09 12:53:40;;;;;;;10.40;4.23;;;12.20;96.40;;;;;;4979273;28;20463;-67
2023/04/09 12:56:10;;;;;;;6.90;4.90;;;12.30;96.50;;;;;;4984264;28;20959;-66
2023/04/09 12:58:40;;;;;;;9.83;5.80;;;12.30;96.20;;;;;;4980071;28;20590;-67
2023/04/09 13:01:12;;;;;;;10.83;5.50;;;12.40;95.50;;;;;;4970057;28;20948;-65
2023/04/09 13:03:40;;;;;;;7.47;5.70;;;12.40;94.80;;;;;;4983278;28;20528;-66
2023/04/09 13:06:09;;;;;;;7.97;5.07;;;12.50;94.20;;;;;;4978032;28;20469;-66